createdAt,value
2019-04-28T03:39:50.593Z,8.18
2019-04-28T03:40:57.289Z,8.25
2019-04-28T03:41:50.210Z,8.14
2019-04-28T05:09:42.665Z,8.40
2019-04-28T05:10:41.605Z,8.40
2019-04-28T05:12:11.424Z,8.32
2019-04-28T05:12:43.341Z,8.43
2019-04-28T05:14:07.610Z,8.42
2019-04-28T05:14:41.463Z,8.45
2019-04-28T05:15:41.517Z,8.40
2019-04-28T05:16:41.798Z,8.42
2019-04-28T05:17:43.339Z,8.43
2019-04-28T05:18:49.907Z,8.50
2019-04-28T05:19:43.854Z,8.40
2019-04-28T05:20:42.362Z,8.49
2019-04-28T05:21:41.283Z,8.49
2019-04-28T05:22:42.679Z,8.55
2019-04-28T05:23:42.894Z,8.52
2019-04-28T05:24:41.172Z,8.47
2019-04-28T05:25:42.860Z,8.58
2019-04-28T05:38:57.270Z,8.71
2019-04-28T05:39:19.570Z,8.71
2019-04-28T05:40:20.617Z,8.76
2019-04-28T05:41:19.632Z,8.80
2019-04-28T06:36:20.257Z,9.93
2019-04-28T06:37:20.227Z,9.89
2019-04-28T06:39:50.653Z,9.98
2019-04-28T06:40:50.579Z,10.01
2019-04-28T06:41:51.740Z,10.16
2019-04-28T06:42:50.534Z,10.17
2019-04-28T06:43:50.618Z,10.11
2019-04-28T06:44:50.471Z,10.11
2019-04-28T06:45:50.501Z,10.26
2019-04-28T06:46:50.413Z,10.18
2019-04-28T06:47:50.386Z,10.17
2019-04-28T06:48:52.468Z,10.24
2019-04-28T06:49:50.396Z,10.18
2019-04-28T06:50:50.434Z,10.22
2019-04-28T06:51:50.311Z,10.34
2019-04-28T06:52:50.351Z,10.39
2019-04-28T06:53:50.230Z,10.36
2019-04-28T06:54:50.290Z,10.36
2019-04-28T06:55:50.321Z,10.49
2019-04-28T06:56:50.296Z,10.43
2019-04-28T06:57:50.175Z,10.43
2019-04-28T06:58:58.735Z,10.43
2019-04-28T06:59:50.098Z,10.46
2019-04-28T07:00:50.112Z,10.49
2019-04-28T07:01:50.065Z,10.47
2019-04-28T07:02:50.131Z,10.44
2019-04-28T07:03:49.978Z,10.47
2019-04-28T07:05:01.154Z,10.54
2019-04-28T07:05:49.932Z,10.57
2019-04-28T07:06:49.947Z,10.55
2019-04-28T07:07:49.878Z,10.66
2019-04-28T07:08:50.943Z,10.58
2019-04-28T07:09:49.827Z,10.63
2019-04-28T07:10:49.846Z,10.75
2019-04-28T07:11:49.753Z,10.80
2019-04-28T07:12:51.841Z,10.88
2019-04-28T07:13:49.722Z,10.93
2019-04-28T07:15:13.712Z,10.91
2019-04-28T07:15:49.629Z,11.03
2019-04-28T07:16:50.701Z,10.91
2019-04-28T07:17:49.568Z,11.08
2019-04-28T07:19:49.539Z,11.16
2019-04-28T07:20:57.188Z,11.03
2019-04-28T07:21:49.467Z,11.02
2019-04-28T07:23:12.572Z,11.16
2019-04-28T07:23:49.426Z,11.02
2019-04-28T07:24:49.400Z,11.05
2019-04-28T07:25:49.382Z,11.16
2019-04-28T07:26:49.341Z,11.16
2019-04-28T07:28:10.332Z,11.20
2019-04-28T07:28:49.297Z,11.21
2019-04-28T07:29:49.247Z,11.28
2019-04-28T07:30:49.277Z,11.27
2019-04-28T07:31:49.215Z,11.31
2019-04-28T07:32:49.182Z,11.30
2019-04-28T07:33:49.162Z,11.28
2019-04-28T07:35:18.771Z,11.42
2019-04-28T07:35:49.092Z,11.44
2019-04-28T07:36:55.694Z,11.51
2019-04-28T07:37:49.021Z,11.54
2019-04-28T08:19:16.924Z,11.17
2019-04-28T08:20:10.486Z,11.19
2019-04-28T08:21:10.549Z,11.24
2019-04-28T08:22:10.433Z,11.20
2019-04-28T08:23:10.467Z,11.16
2019-04-28T08:24:10.384Z,11.06
2019-04-28T08:25:10.361Z,11.03
2019-04-28T08:26:10.374Z,11.09
2019-04-28T08:27:10.298Z,11.12
2019-04-28T08:28:11.288Z,11.11
2019-04-28T08:29:10.250Z,11.06
2019-04-28T08:30:11.240Z,11.11
2019-04-28T08:31:10.199Z,11.06
2019-04-28T08:32:12.281Z,10.99
2019-04-28T08:33:10.134Z,10.95
2019-04-28T08:34:11.190Z,10.95
2019-04-28T08:35:10.109Z,10.93
2019-04-28T08:36:12.142Z,10.88
2019-04-28T08:37:10.031Z,10.84
2019-04-28T08:38:11.139Z,10.87
2019-04-28T08:39:10.006Z,10.76
2019-04-28T08:40:10.013Z,10.76
2019-04-28T08:41:09.936Z,10.62
2019-04-28T08:42:12.007Z,10.52
2019-04-28T08:43:09.894Z,10.55
2019-04-28T08:44:09.945Z,10.54
2019-04-28T08:45:09.858Z,10.47
2019-04-28T08:46:11.919Z,10.49
2019-04-28T08:47:10.077Z,10.44
2019-04-28T08:48:11.842Z,10.39
2019-04-28T08:49:09.723Z,10.38
2019-04-28T08:50:09.748Z,10.35
2019-04-28T08:51:09.669Z,10.20
2019-04-28T08:52:09.645Z,10.25
2019-04-28T08:53:16.354Z,10.17
2019-04-28T08:54:09.581Z,10.13
2019-04-28T08:55:09.606Z,10.10
2019-04-28T08:56:09.530Z,10.18
2019-04-28T08:57:09.620Z,10.06
2019-04-28T08:58:09.477Z,10.11
2019-04-28T08:59:09.515Z,10.11
2019-04-28T09:00:09.581Z,10.18
2019-04-28T09:01:11.489Z,10.26
2019-04-28T09:02:09.379Z,10.36
2019-04-28T09:03:09.469Z,10.47
2019-04-28T09:04:15.649Z,10.60
2019-04-28T09:05:11.357Z,10.60
2019-04-28T09:06:09.259Z,10.66
2019-04-28T09:07:11.380Z,10.69
2019-04-28T09:08:09.244Z,10.78
2019-04-28T09:09:09.302Z,10.84
2019-04-28T09:10:09.166Z,10.87
2019-04-28T09:11:10.253Z,10.90
2019-04-28T09:12:09.137Z,11.03
2019-04-28T11:50:56.647Z,13.76
2019-04-28T11:51:52.782Z,13.71
2019-04-28T11:52:52.686Z,13.57
2019-04-28T11:53:52.633Z,13.68
2019-04-28T11:54:59.476Z,13.61
2019-04-28T11:55:52.576Z,13.66
2019-04-28T11:56:52.616Z,13.71
2019-04-28T11:57:52.538Z,13.75
2019-04-28T11:58:53.558Z,13.69
2019-04-28T11:59:54.118Z,13.71
2019-04-28T12:00:54.488Z,13.83
2019-04-28T12:01:52.444Z,13.86
2019-04-28T12:02:52.487Z,13.94
2019-04-28T12:03:52.374Z,14.11
2019-04-28T12:04:53.420Z,14.34
2019-04-28T12:05:52.311Z,14.49
2019-04-28T12:07:07.987Z,14.59
2019-04-28T12:07:52.286Z,14.63
2019-04-28T12:08:58.976Z,14.69
2019-04-28T12:10:03.749Z,14.80
2019-04-28T12:11:13.217Z,14.82
2019-04-28T12:11:52.166Z,14.72
2019-04-28T12:12:52.144Z,14.69
2019-04-28T12:14:00.028Z,14.66
2019-04-28T12:14:52.089Z,14.54
2019-04-28T12:16:28.042Z,14.54
2019-04-28T12:16:52.029Z,14.46
2019-04-28T12:17:52.064Z,14.27
2019-04-28T12:18:51.970Z,14.30
2019-04-28T12:20:12.955Z,14.08
2019-04-28T12:20:51.941Z,14.05
2019-04-28T12:22:00.559Z,13.94
2019-04-28T12:22:51.864Z,13.94
2019-04-28T12:23:53.915Z,13.87
2019-04-28T12:24:51.825Z,13.80
2019-04-28T12:26:08.588Z,13.63
2019-04-28T12:26:51.771Z,13.48
2019-04-28T12:27:51.750Z,13.38
2019-04-28T12:28:51.736Z,13.29
2019-04-28T12:29:53.789Z,13.24
2019-04-28T12:30:51.661Z,13.16
2019-04-28T12:32:06.487Z,13.07
2019-04-28T12:32:51.604Z,13.04
2019-04-28T12:34:51.560Z,12.98
2019-04-28T12:36:00.487Z,12.94
2019-04-28T12:36:51.482Z,12.95
2019-04-28T12:37:52.579Z,12.96
2019-04-28T12:38:51.421Z,12.96
2019-04-28T12:39:53.649Z,12.94
2019-04-28T12:40:51.381Z,13.10
2019-04-28T12:42:13.404Z,13.01
2019-04-28T12:42:51.340Z,13.06
2019-04-28T12:43:51.385Z,13.14
2019-04-28T12:44:51.293Z,13.12
2019-04-28T12:45:51.303Z,13.07
2019-04-28T12:46:51.255Z,13.22
2019-04-28T12:47:53.288Z,13.22
2019-04-28T12:48:51.205Z,13.35
2019-04-28T12:50:00.077Z,13.38
2019-04-28T12:50:51.120Z,13.55
2019-04-28T12:51:52.244Z,13.63
2019-04-28T12:52:51.084Z,13.63
2019-04-28T12:53:52.085Z,13.68
2019-04-28T12:54:51.046Z,13.68
2019-04-28T12:55:52.116Z,13.61
2019-04-28T12:56:50.994Z,13.68
2019-04-28T12:57:58.979Z,13.68
2019-04-28T12:58:50.922Z,13.71
2019-04-28T12:59:53.153Z,13.71
2019-04-28T13:00:50.870Z,13.75
2019-04-28T13:01:50.969Z,13.68
2019-04-28T13:02:50.829Z,13.71
2019-04-28T13:03:50.807Z,13.79
2019-04-28T13:04:50.767Z,13.84
2019-04-28T13:06:01.110Z,13.75
2019-04-28T13:06:50.694Z,13.79
2019-04-28T13:07:51.899Z,13.87
2019-04-28T13:08:50.679Z,13.73
2019-04-28T13:10:05.592Z,13.88
2019-04-28T13:10:50.624Z,13.83
2019-04-28T13:11:51.775Z,13.76
2019-04-28T13:12:50.538Z,13.83
2019-04-28T13:14:26.538Z,13.80
2019-04-28T13:14:50.482Z,13.86
2019-04-28T13:16:50.433Z,13.90
2019-04-28T13:21:52.664Z,14.08
2019-04-28T13:23:50.979Z,14.34
2019-04-28T13:24:58.726Z,14.45
2019-04-28T13:25:50.905Z,14.48
2019-04-28T13:27:50.878Z,14.44
2019-04-28T13:28:51.937Z,14.57
2019-04-28T13:29:50.810Z,14.53
2019-04-28T13:30:50.780Z,14.46
2019-04-28T13:31:52.643Z,14.45
2019-04-28T13:32:58.698Z,14.45
2019-04-28T13:33:56.411Z,14.34
2019-04-28T13:35:26.703Z,14.42
2019-04-28T13:35:50.696Z,14.36
2019-04-28T13:36:50.632Z,14.36
2019-04-28T13:37:58.255Z,14.39
2019-04-28T13:38:50.568Z,14.49
2019-04-28T13:40:28.232Z,14.54
2019-04-28T13:40:50.508Z,14.46
2019-04-28T13:41:50.577Z,14.35
2019-04-28T13:42:50.491Z,14.44
2019-04-28T13:43:50.508Z,14.41
2019-04-28T13:44:50.441Z,14.42
2019-04-28T13:45:58.333Z,14.39
2019-04-28T13:46:50.372Z,14.45
2019-04-28T14:07:43.214Z,14.53
2019-04-28T14:08:41.449Z,14.35
2019-04-28T14:09:41.340Z,14.46
2019-04-28T14:10:41.431Z,14.48
2019-04-28T14:11:41.333Z,14.57
2019-04-28T14:12:41.234Z,14.63
2019-04-28T14:13:41.307Z,14.66
2019-04-28T14:14:41.178Z,14.60
2019-04-28T14:15:41.135Z,14.61
2019-04-28T14:16:42.199Z,14.60
2019-04-28T14:17:41.080Z,14.69
2019-04-28T14:18:41.069Z,14.56
2019-04-28T14:19:41.037Z,14.63
2019-04-28T14:20:41.011Z,14.67
2019-04-28T14:21:41.052Z,14.74
2019-04-28T14:22:41.047Z,14.72
2019-04-28T14:23:41.017Z,14.61
2019-04-28T14:24:40.890Z,14.74
2019-04-28T14:25:40.869Z,14.82
2019-04-28T14:26:40.863Z,14.87
2019-04-28T14:27:40.808Z,14.97
2019-04-28T14:28:40.940Z,15.01
2019-04-28T14:29:40.758Z,14.98
2019-04-28T14:30:40.869Z,15.04
2019-04-28T14:31:40.704Z,15.09
2019-04-28T14:33:04.805Z,14.78
2019-04-28T14:33:40.651Z,14.66
2019-04-28T14:34:49.319Z,14.71
2019-04-28T14:35:40.668Z,14.67
2019-04-28T14:37:40.550Z,14.61
2019-04-28T14:39:40.493Z,14.66
2019-04-28T14:40:40.459Z,14.64
2019-04-28T14:42:03.510Z,14.59
2019-04-28T14:42:40.466Z,14.63
2019-04-28T14:43:47.290Z,14.59
2019-04-28T14:44:40.368Z,14.57
2019-04-28T14:45:47.327Z,14.57
2019-04-28T14:46:40.299Z,14.54
2019-04-28T14:48:40.303Z,14.63
2019-04-28T14:49:40.336Z,14.66
2019-04-28T14:50:40.196Z,14.71
2019-04-28T14:51:56.706Z,14.72
2019-04-28T14:52:40.144Z,14.61
2019-04-28T14:53:42.199Z,14.63
2019-04-28T14:54:40.117Z,14.60
2019-04-28T14:56:07.243Z,14.59
2019-04-28T14:56:40.100Z,14.64
2019-04-28T14:57:41.087Z,14.61
2019-04-28T14:58:40.003Z,14.69
2019-04-28T14:59:40.133Z,14.74
2019-04-28T15:00:39.943Z,14.63
2019-04-28T15:01:40.057Z,14.57
2019-04-28T15:02:54.875Z,14.59
2019-04-28T15:03:39.894Z,14.56
2019-04-28T15:36:07.567Z,14.71
2019-04-28T15:37:09.467Z,14.72
2019-04-28T15:38:01.214Z,14.82
2019-04-28T15:39:01.090Z,14.80
2019-04-28T15:40:02.148Z,14.72
2019-04-28T15:41:01.087Z,14.86
2019-04-28T15:42:22.045Z,14.78
2019-04-28T15:43:00.989Z,14.82
2019-04-28T15:44:01.973Z,14.85
2019-04-28T15:45:00.932Z,14.72
2019-04-28T15:46:17.597Z,14.61
2019-04-28T15:47:00.893Z,14.63
2019-04-28T15:48:01.848Z,14.60
2019-04-28T15:49:00.822Z,14.63
2019-04-28T15:50:00.804Z,14.69
2019-04-28T15:51:00.780Z,14.56
2019-04-28T15:52:07.522Z,14.59
2019-04-28T15:53:00.718Z,14.60
2019-04-28T15:54:01.710Z,14.64
2019-04-28T15:55:00.656Z,14.74
2019-04-28T15:56:00.653Z,14.80
2019-04-28T15:57:00.642Z,14.74
2019-04-28T15:58:08.523Z,14.72
2019-04-28T15:59:00.575Z,14.67
2019-04-28T16:00:00.538Z,14.60
2019-04-28T16:01:00.493Z,14.71
2019-04-28T16:02:01.494Z,14.69
2019-04-28T16:03:00.446Z,14.64
2019-04-28T16:04:00.422Z,14.59
2019-04-28T16:05:00.387Z,14.60
2019-04-28T16:06:22.416Z,14.54
2019-04-28T16:07:00.351Z,14.57
2019-04-28T16:08:01.333Z,14.46
2019-04-28T16:09:00.281Z,14.39
2019-04-28T16:10:09.045Z,14.36
2019-04-28T16:11:00.226Z,14.41
2019-04-28T16:13:00.199Z,14.38
2019-04-28T16:14:00.225Z,14.46
2019-04-28T16:15:00.131Z,14.13
2019-04-28T16:16:09.166Z,14.05
2019-04-28T16:17:00.105Z,14.06
2019-04-28T16:18:37.163Z,14.02
2019-04-28T16:19:00.117Z,13.98
2019-04-28T16:20:00.039Z,14.02
2019-04-28T16:20:59.986Z,14.16
2019-04-28T16:21:59.961Z,14.08
2019-04-28T16:22:59.917Z,14.11
2019-04-28T16:23:59.902Z,14.08
2019-04-28T16:34:33.502Z,13.93
2019-04-28T16:35:30.590Z,13.98
2019-04-28T16:36:30.565Z,13.90
2019-04-28T16:37:38.708Z,13.84
2019-04-28T16:38:30.523Z,13.90
2019-04-28T16:39:30.491Z,13.87
2019-04-28T16:40:30.491Z,13.79
2019-04-28T16:41:30.571Z,13.83
2019-04-28T16:42:30.401Z,13.84
2019-04-28T16:43:30.387Z,13.83
2019-04-28T16:44:30.420Z,13.73
2019-04-28T16:45:30.376Z,13.79
2019-04-28T16:46:30.321Z,13.76
2019-04-28T16:47:30.266Z,13.71
2019-04-28T16:48:30.344Z,13.73
2019-04-28T16:49:30.223Z,13.73
2019-04-28T16:50:30.248Z,13.75
2019-04-28T16:51:30.312Z,13.69
2019-04-28T16:52:30.424Z,13.73
2019-04-28T16:53:30.381Z,13.61
2019-04-28T16:54:30.432Z,13.65
2019-04-28T16:55:30.350Z,13.62
2019-04-28T16:56:30.461Z,13.57
2019-04-28T16:57:30.036Z,13.53
2019-04-28T16:58:30.037Z,13.50
2019-04-28T16:59:29.988Z,13.55
2019-04-28T17:00:29.960Z,13.48
2019-04-28T17:01:30.055Z,13.48
2019-04-28T17:02:29.940Z,13.50
2019-04-28T17:03:29.977Z,13.47
2019-04-28T17:04:29.882Z,13.29
2019-04-28T17:05:29.889Z,13.29
2019-04-28T17:06:29.797Z,13.14
2019-04-28T17:07:29.932Z,13.17
2019-04-28T17:08:29.774Z,13.09
2019-04-28T17:09:29.733Z,13.07
2019-04-28T17:10:29.690Z,13.04
2019-04-28T17:11:29.858Z,12.94
2019-04-28T17:12:30.517Z,12.79
2019-04-28T17:13:29.632Z,12.71
2019-04-28T17:14:29.590Z,12.80
2019-04-28T17:15:30.571Z,12.67
2019-04-28T17:16:29.565Z,12.58
2019-04-28T17:17:30.598Z,12.63
2019-04-28T17:18:29.452Z,12.58
2019-04-28T17:19:57.078Z,12.59
2019-04-28T17:20:29.444Z,12.51
2019-04-28T17:40:24.722Z,11.85
2019-04-28T17:41:22.378Z,11.84
2019-04-28T17:42:20.331Z,11.79
2019-04-28T17:43:20.436Z,11.75
2019-04-28T17:44:20.316Z,11.74
2019-04-28T17:45:27.208Z,11.72
2019-04-28T17:46:20.251Z,11.64
2019-04-28T17:47:21.305Z,11.77
2019-04-28T17:48:20.182Z,11.69
2019-04-28T17:49:20.171Z,11.67
2019-04-28T17:50:20.166Z,11.62
2019-04-28T17:51:22.208Z,11.59
2019-04-28T17:52:20.068Z,11.60
2019-04-28T17:53:20.094Z,11.57
2019-04-28T17:54:20.012Z,11.57
2019-04-28T17:55:21.038Z,11.57
2019-04-28T17:56:19.973Z,11.54
2019-04-28T17:57:26.683Z,11.56
2019-04-28T17:58:19.926Z,11.54
2019-04-28T17:59:20.001Z,11.59
2019-04-28T18:00:19.875Z,11.57
2019-04-28T18:01:21.924Z,11.44
2019-04-28T18:02:19.824Z,11.39
2019-04-28T18:03:19.897Z,11.41
2019-04-28T18:04:19.755Z,11.42
2019-04-28T18:05:21.849Z,11.39
2019-04-28T18:06:19.718Z,11.41
2019-04-28T18:07:19.729Z,11.38
2019-04-28T18:08:21.110Z,11.38
2019-04-28T18:09:19.766Z,11.31
2019-04-28T18:10:19.603Z,11.42
2019-04-28T18:11:19.636Z,11.31
2019-04-28T18:12:19.550Z,11.28
2019-04-28T18:13:20.573Z,11.31
2019-04-28T18:14:19.488Z,11.27
2019-04-28T18:15:21.525Z,11.27
2019-04-28T18:16:19.430Z,11.24
2019-04-28T18:17:20.546Z,11.20
2019-04-28T18:18:19.400Z,11.21
2019-04-28T18:19:19.462Z,11.13
2019-04-28T18:20:19.336Z,11.01
2019-04-28T18:21:20.441Z,11.12
2019-04-28T18:22:19.284Z,11.09
2019-04-28T18:23:21.370Z,11.09
2019-04-28T18:24:19.215Z,11.05
2019-04-28T18:25:26.308Z,11.02
2019-04-28T18:26:19.189Z,10.94
2019-04-28T18:27:20.441Z,10.95
2019-04-28T18:28:19.145Z,10.94
2019-04-28T18:29:19.131Z,10.94
2019-04-28T18:30:19.066Z,10.94
2019-04-28T18:31:19.188Z,10.86
2019-04-28T18:32:19.013Z,10.93
2019-04-28T18:33:19.078Z,10.84
2019-04-28T18:34:18.970Z,10.84
2019-04-28T18:35:19.059Z,10.80
2019-04-28T18:36:18.914Z,10.75
2019-04-28T18:37:18.944Z,10.75
2019-04-28T18:38:18.881Z,10.73
2019-04-28T18:39:18.854Z,10.66
2019-04-28T18:40:18.812Z,10.68
2019-04-28T18:41:18.876Z,10.62
2019-04-28T18:42:18.749Z,10.60
2019-04-28T18:43:19.801Z,10.42
2019-04-28T18:44:18.697Z,10.38
2019-04-28T18:45:18.701Z,10.47
2019-04-28T18:46:18.652Z,10.42
2019-04-28T18:47:18.728Z,10.35
2019-04-28T18:48:18.595Z,10.29
2019-04-28T18:49:19.647Z,10.28
2019-04-28T18:50:18.528Z,10.32
2019-04-28T18:51:18.521Z,10.31
2019-04-28T18:52:18.541Z,10.22
2019-04-28T18:53:18.438Z,10.22
2019-04-28T18:54:18.431Z,10.16
2019-04-28T18:55:18.493Z,10.24
2019-04-28T18:56:18.385Z,10.17
2019-04-28T18:57:18.413Z,10.09
2019-04-28T18:58:18.373Z,10.11
2019-04-28T18:59:18.415Z,10.02
2019-04-28T19:00:18.262Z,10.04
2019-04-28T19:01:18.319Z,9.99
2019-04-28T19:02:18.194Z,9.91
2019-04-28T19:03:18.307Z,9.91
2019-04-28T19:04:18.154Z,9.81
2019-04-28T19:05:18.251Z,9.83
2019-04-28T19:06:18.109Z,9.86
2019-04-28T19:07:18.182Z,9.80
2019-04-28T19:08:18.051Z,9.83
2019-04-28T19:09:18.034Z,9.85
2019-04-28T19:10:18.102Z,9.83
2019-04-28T19:11:18.000Z,9.80
2019-04-28T19:12:17.951Z,9.77
2019-04-28T19:13:17.906Z,9.75
2019-04-28T19:14:17.897Z,9.74
2019-04-28T19:15:18.951Z,9.63
2019-04-28T19:16:17.823Z,9.68
2019-04-28T19:17:17.792Z,9.62
2019-04-28T19:18:17.795Z,9.60
2019-04-28T19:19:18.867Z,9.56
2019-04-28T19:20:17.731Z,9.52
2019-04-28T19:21:17.727Z,9.53
2019-04-28T19:22:17.734Z,9.42
2019-04-28T19:23:17.649Z,9.49
2019-04-28T22:35:57.306Z,6.45
2019-04-28T22:36:57.267Z,6.45
2019-04-28T22:37:57.288Z,6.42
2019-04-28T22:38:57.211Z,6.46
2019-04-28T22:39:57.194Z,6.45
2019-04-28T22:40:57.218Z,6.45
2019-04-28T22:41:58.236Z,6.43
2019-04-28T22:42:57.101Z,6.45
2019-04-28T22:43:57.118Z,6.38
2019-04-28T22:44:57.133Z,6.42
2019-04-28T22:45:57.021Z,6.43
2019-04-28T22:46:56.990Z,6.36
2019-04-28T22:47:56.963Z,6.35
2019-04-28T22:48:56.941Z,6.42
2019-04-28T22:49:57.982Z,6.21
2019-04-28T22:50:56.878Z,6.28
2019-04-28T22:51:56.938Z,6.20
2019-04-28T22:52:56.836Z,6.33
2019-04-28T22:53:56.882Z,6.30
2019-04-28T22:54:56.769Z,6.28
2019-04-28T22:55:58.837Z,6.21
2019-04-28T22:56:56.723Z,6.10
2019-04-28T22:57:56.805Z,6.11
2019-04-28T22:58:56.663Z,6.13
2019-04-28T22:59:58.711Z,6.19
2019-04-28T23:00:56.610Z,6.08
2019-04-28T23:02:56.969Z,6.13
2019-04-28T23:03:56.532Z,6.05
